createdAt,value
2019-02-08T00:01:57.633Z,36.47
2019-02-08T00:04:27.870Z,29.80
2019-02-08T00:06:57.797Z,27.17
2019-02-08T00:09:28.085Z,36.07
2019-02-08T00:11:58.288Z,27.40
2019-02-08T00:14:29.069Z,35.87
2019-02-08T00:16:59.251Z,37.63
2019-02-08T00:19:29.158Z,37.67
2019-02-08T00:21:59.307Z,30.37
2019-02-08T00:24:29.644Z,41.10
2019-02-08T00:26:59.886Z,27.63
2019-02-08T00:29:30.154Z,33.97
2019-02-08T00:32:00.985Z,25.27
2019-02-08T00:34:31.282Z,34.23
2019-02-08T00:37:01.722Z,24.23
2019-02-08T00:39:31.912Z,24.43
2019-02-08T00:42:02.078Z,39.77
2019-02-08T00:44:32.361Z,26.83
2019-02-08T00:47:02.646Z,32.90
2019-02-08T00:49:32.845Z,28.53
2019-02-08T00:52:03.021Z,29.50
2019-02-08T00:54:33.932Z,26.63
2019-02-08T00:57:04.142Z,20.93
2019-02-08T00:59:34.395Z,27.63
2019-02-08T01:02:04.889Z,27.87
2019-02-08T01:04:35.024Z,26.70
2019-02-08T01:07:05.307Z,26.80
2019-02-08T01:09:36.240Z,26.57
2019-02-08T01:12:06.641Z,31.80
2019-02-08T01:14:37.060Z,28.27
2019-02-08T01:17:07.054Z,28.23
2019-02-08T01:19:37.556Z,31.33
2019-02-08T01:22:07.799Z,28.23
2019-02-08T01:24:38.513Z,35.30
2019-02-08T01:27:08.462Z,34.07
2019-02-08T01:29:39.205Z,37.13
2019-02-08T01:32:09.402Z,39.97
2019-02-08T01:34:39.338Z,32.77
2019-02-08T01:37:09.500Z,31.90
2019-02-08T01:39:39.640Z,31.43
2019-02-08T01:42:09.823Z,30.17
2019-02-08T01:44:40.007Z,32.50
2019-02-08T01:47:10.162Z,37.90
2019-02-08T01:49:40.550Z,32.83
2019-02-08T01:52:10.802Z,32.43
2019-02-08T01:54:40.708Z,41.33
2019-02-08T01:57:11.249Z,40.60
2019-02-08T01:59:41.384Z,43.40
2019-02-08T02:02:12.871Z,30.27
2019-02-08T02:04:43.096Z,42.17
2019-02-08T02:07:13.349Z,36.93
2019-02-08T02:09:43.592Z,45.50
2019-02-08T02:12:13.606Z,39.43
2019-02-08T02:14:44.237Z,40.30
2019-02-08T02:17:14.661Z,37.33
2019-02-08T02:19:44.926Z,39.80
2019-02-08T02:22:15.324Z,34.80
2019-02-08T02:24:45.288Z,31.60
2019-02-08T02:27:15.524Z,30.13
2019-02-08T02:29:45.720Z,35.03
2019-02-08T02:32:16.131Z,33.47
2019-02-08T02:34:46.465Z,30.23
2019-02-08T02:37:16.612Z,32.83
2019-02-08T02:39:47.356Z,26.77
2019-02-08T02:42:17.502Z,29.40
2019-02-08T02:44:47.953Z,29.93
2019-02-08T02:47:18.129Z,33.23
2019-02-08T02:49:48.299Z,27.23
2019-02-08T02:52:18.891Z,32.47
2019-02-08T02:54:49.688Z,37.23
2019-02-08T02:57:20.377Z,27.93
2019-02-08T02:59:50.639Z,29.20
2019-02-08T03:02:21.059Z,31.33
2019-02-08T03:04:51.516Z,31.80
2019-02-08T03:07:21.880Z,29.87
2019-02-08T03:09:52.399Z,36.03
2019-02-08T03:12:22.528Z,26.87
2019-02-08T03:14:52.703Z,28.80
2019-02-08T03:17:23.178Z,29.93
2019-02-08T03:19:53.653Z,31.97
2019-02-08T03:22:23.955Z,27.10
2019-02-08T03:24:53.904Z,30.13
2019-02-08T03:27:24.675Z,35.33
2019-02-08T03:29:54.918Z,24.80
2019-02-08T03:32:25.025Z,24.63
2019-02-08T03:34:55.494Z,22.17
2019-02-08T03:37:25.488Z,23.17
2019-02-08T03:39:55.915Z,25.53
2019-02-08T03:42:26.354Z,24.20
2019-02-08T03:44:56.783Z,30.33
2019-02-08T03:47:26.736Z,25.67
2019-02-08T03:49:56.720Z,30.77
2019-02-08T03:52:26.728Z,32.73
2019-02-08T03:54:56.664Z,27.50
2019-02-08T03:57:26.583Z,29.07
2019-02-08T03:59:57.062Z,22.13
2019-02-08T04:02:27.900Z,31.80
2019-02-08T04:04:58.131Z,24.07
2019-02-08T04:07:28.068Z,24.67
2019-02-08T04:09:58.313Z,22.00
2019-02-08T04:12:28.580Z,25.30
2019-02-08T04:14:58.995Z,22.80
2019-02-08T04:17:28.952Z,28.80
2019-02-08T04:19:59.024Z,25.47
2019-02-08T04:22:28.955Z,20.90
2019-02-08T04:24:59.147Z,27.00
2019-02-08T04:27:29.411Z,21.17
2019-02-08T04:29:59.365Z,25.00
2019-02-08T04:32:29.580Z,41.00
2019-02-08T04:34:59.753Z,16.93
2019-02-08T04:37:29.962Z,19.70
2019-02-08T04:40:00.386Z,20.07
2019-02-08T04:42:30.283Z,14.30
2019-02-08T04:45:00.527Z,17.77
2019-02-08T04:47:30.703Z,18.60
2019-02-08T04:50:00.909Z,27.73
2019-02-08T04:52:31.106Z,16.40
2019-02-08T04:55:01.032Z,14.13
2019-02-08T04:57:30.942Z,12.83
2019-02-08T05:00:01.498Z,17.53
2019-02-08T05:02:31.483Z,18.30
2019-02-08T05:05:01.640Z,12.20
2019-02-08T05:07:32.116Z,15.20
2019-02-08T05:10:02.158Z,14.00
2019-02-08T05:12:32.072Z,16.50
2019-02-08T05:15:02.510Z,15.77
2019-02-08T05:17:32.501Z,13.07
2019-02-08T05:20:03.042Z,14.97
2019-02-08T05:22:33.782Z,19.97
2019-02-08T05:25:04.111Z,23.63
2019-02-08T05:27:34.293Z,14.90
2019-02-08T05:30:07.843Z,14.63
2019-02-08T05:32:38.017Z,13.80
2019-02-08T05:35:08.758Z,17.30
2019-02-08T05:37:39.276Z,14.10
2019-02-08T05:40:10.979Z,14.73
2019-02-08T05:42:41.261Z,16.90
2019-02-08T05:45:13.901Z,21.50
2019-02-08T05:47:44.138Z,18.37
2019-02-08T05:50:18.075Z,20.70
2019-02-08T05:52:48.083Z,21.70
2019-02-08T05:55:20.892Z,17.80
2019-02-08T05:57:51.166Z,30.40
2019-02-08T06:00:37.850Z,15.73
2019-02-08T06:03:08.396Z,19.00
2019-02-08T06:05:39.364Z,16.20
2019-02-08T06:08:10.528Z,17.57
2019-02-08T06:10:40.842Z,17.87
2019-02-08T06:13:11.706Z,23.20
2019-02-08T06:15:42.351Z,25.77
2019-02-08T06:18:13.474Z,19.07
2019-02-08T06:20:44.188Z,18.83
2019-02-08T06:23:14.698Z,16.70
2019-02-08T06:25:45.101Z,14.77
2019-02-08T06:28:15.658Z,20.73
2019-02-08T06:30:45.875Z,25.13
2019-02-08T06:33:16.139Z,17.53
2019-02-08T06:35:46.544Z,27.47
2019-02-08T06:38:16.930Z,18.47
2019-02-08T06:40:48.435Z,18.90
2019-02-08T06:43:18.765Z,14.37
2019-02-08T06:45:50.291Z,11.47
2019-02-08T06:48:20.291Z,12.60
2019-02-08T06:50:50.418Z,15.83
2019-02-08T06:53:20.847Z,12.57
2019-02-08T06:55:53.773Z,16.13
2019-02-08T06:58:31.516Z,14.23
2019-02-08T07:01:15.616Z,10.27
2019-02-08T07:04:12.917Z,16.27
2019-02-08T07:07:16.956Z,15.83
2019-02-08T07:10:00.684Z,17.80
2019-02-08T07:12:52.513Z,16.10
2019-02-08T07:15:30.787Z,13.93
2019-02-08T07:18:06.960Z,11.50
2019-02-08T07:20:56.098Z,15.93
2019-02-08T07:23:39.549Z,10.70
2019-02-08T07:26:27.424Z,10.67
2019-02-08T07:29:16.496Z,11.63
2019-02-08T07:31:57.828Z,10.73
2019-02-08T07:34:52.895Z,14.60
2019-02-08T07:37:40.653Z,12.27
2019-02-08T07:40:31.389Z,13.80
2019-02-08T07:43:29.387Z,14.47
2019-02-08T07:46:10.243Z,10.80
2019-02-08T07:48:54.423Z,10.93
2019-02-08T07:51:55.748Z,13.00
2019-02-08T07:55:03.312Z,13.70
2019-02-08T07:57:49.889Z,12.83
2019-02-08T08:00:39.278Z,10.33
2019-02-08T08:03:26.766Z,8.57
2019-02-08T08:06:19.489Z,9.70
2019-02-08T08:09:06.951Z,11.40
2019-02-08T08:11:42.879Z,10.30
2019-02-08T08:14:22.681Z,16.43
2019-02-08T08:17:06.056Z,15.93
2019-02-08T08:19:46.738Z,14.93
2019-02-08T08:22:27.846Z,12.10
2019-02-08T08:25:23.179Z,9.57
2019-02-08T08:28:15.335Z,19.97
2019-02-08T08:30:55.969Z,13.43
2019-02-08T08:33:55.951Z,9.03
2019-02-08T08:37:16.096Z,13.03
2019-02-08T08:40:44.087Z,9.50
2019-02-08T08:43:55.424Z,7.30
2019-02-08T08:47:19.583Z,12.57
2019-02-08T08:50:55.247Z,27.27
2019-02-08T08:54:05.891Z,7.00
2019-02-08T08:57:40.265Z,11.87
2019-02-08T09:01:00.732Z,11.13
2019-02-08T09:04:26.928Z,10.77
2019-02-08T09:07:41.530Z,6.70
2019-02-08T09:10:51.312Z,6.63
2019-02-08T09:14:15.465Z,13.40
2019-02-08T09:17:42.946Z,13.97
2019-02-08T09:21:02.990Z,11.00
2019-02-08T09:24:47.200Z,7.07
2019-02-08T09:28:08.951Z,6.73
2019-02-08T09:31:09.354Z,8.00
2019-02-08T09:34:33.328Z,8.00
2019-02-08T09:37:44.990Z,7.50
2019-02-08T09:40:59.240Z,11.10
2019-02-08T09:44:34.453Z,8.93
2019-02-08T09:48:07.513Z,8.93
2019-02-08T09:51:30.498Z,5.93
2019-02-08T09:54:52.230Z,8.90
2019-02-08T09:57:50.173Z,9.67
2019-02-08T10:01:21.221Z,5.57
2019-02-08T10:04:36.881Z,8.20
2019-02-08T10:08:07.866Z,7.07
2019-02-08T10:11:48.745Z,12.77
2019-02-08T10:15:18.725Z,5.97
2019-02-08T10:18:59.823Z,10.37
2019-02-08T10:22:41.286Z,7.57
2019-02-08T10:26:15.064Z,14.27
2019-02-08T10:29:41.752Z,8.90
2019-02-08T10:33:01.519Z,10.43
2019-02-08T10:36:25.047Z,10.33
2019-02-08T10:39:55.200Z,8.00
2019-02-08T10:43:28.518Z,14.03
2019-02-08T10:46:37.844Z,15.10
2019-02-08T10:49:56.657Z,11.00
2019-02-08T10:53:27.555Z,12.93
2019-02-08T10:56:44.435Z,9.27
2019-02-08T10:59:52.568Z,6.47
2019-02-08T11:03:27.924Z,13.20
2019-02-08T11:06:49.537Z,7.80
2019-02-08T11:10:22.092Z,12.40
2019-02-08T11:13:49.862Z,10.87
2019-02-08T11:17:15.687Z,9.47
2019-02-08T11:19:43.967Z,11.30
2019-02-08T11:22:14.394Z,13.83
2019-02-08T11:24:44.561Z,10.30
2019-02-08T11:27:15.094Z,8.07
2019-02-08T11:29:45.257Z,11.90
2019-02-08T11:32:15.309Z,18.47
2019-02-08T11:34:45.458Z,8.77
2019-02-08T11:37:15.768Z,8.87
2019-02-08T11:39:45.832Z,13.57
2019-02-08T11:42:15.984Z,9.90
2019-02-08T11:44:46.223Z,8.13
2019-02-08T11:47:16.235Z,16.57
2019-02-08T11:49:46.181Z,13.27
2019-02-08T11:52:16.614Z,9.03
2019-02-08T11:54:46.771Z,13.37
2019-02-08T11:57:17.015Z,11.17
2019-02-08T11:59:46.930Z,8.10
2019-02-08T12:02:18.438Z,9.43
2019-02-08T12:04:48.415Z,8.47
2019-02-08T12:07:18.428Z,12.60
2019-02-08T12:09:48.882Z,8.73
2019-02-08T12:12:19.302Z,7.87
2019-02-08T12:14:49.325Z,11.13
2019-02-08T12:17:19.620Z,8.13
2019-02-08T12:19:50.278Z,10.90
2019-02-08T12:22:20.454Z,9.67
2019-02-08T12:24:52.500Z,6.77
2019-02-08T12:27:22.824Z,5.40
2019-02-08T12:29:53.056Z,10.03
2019-02-08T12:32:23.211Z,9.13
2019-02-08T12:34:53.371Z,7.77
2019-02-08T12:37:23.605Z,11.03
2019-02-08T12:39:53.524Z,11.10
2019-02-08T12:42:23.530Z,10.63
2019-02-08T12:44:54.169Z,8.83
2019-02-08T12:47:24.640Z,8.73
2019-02-08T12:49:54.562Z,12.43
2019-02-08T12:52:25.222Z,11.30
2019-02-08T12:54:55.632Z,8.47
2019-02-08T12:57:26.028Z,9.80
2019-02-08T12:59:56.417Z,11.90
2019-02-08T13:02:26.583Z,7.27
2019-02-08T13:04:56.941Z,6.67
2019-02-08T13:07:54.415Z,8.80
2019-02-08T13:10:25.309Z,6.30
2019-02-08T13:12:55.272Z,8.93
2019-02-08T13:15:25.682Z,10.50
2019-02-08T13:17:55.504Z,11.57
2019-02-08T13:20:25.471Z,8.10
2019-02-08T13:22:55.691Z,8.93
2019-02-08T13:25:25.851Z,6.70
2019-02-08T13:27:55.700Z,8.40
2019-02-08T13:30:28.510Z,13.43
2019-02-08T13:32:58.525Z,15.73
2019-02-08T13:35:28.693Z,11.57
2019-02-08T13:37:58.600Z,9.67
2019-02-08T13:40:28.532Z,13.30
2019-02-08T13:42:58.422Z,8.77
2019-02-08T13:45:28.739Z,9.30
2019-02-08T13:47:59.043Z,8.87
2019-02-08T13:50:29.253Z,6.33
2019-02-08T13:52:59.495Z,8.97
2019-02-08T13:55:29.802Z,10.17
2019-02-08T13:57:59.803Z,11.50
2019-02-08T14:00:35.682Z,9.47
2019-02-08T14:03:06.612Z,8.73
2019-02-08T14:05:36.647Z,8.43
2019-02-08T14:08:07.474Z,9.23
2019-02-08T14:10:37.525Z,9.00
2019-02-08T14:13:07.521Z,9.27
2019-02-08T14:15:37.766Z,10.03
2019-02-08T14:18:07.795Z,11.23
2019-02-08T14:20:37.732Z,10.10
2019-02-08T14:23:07.553Z,13.60
2019-02-08T14:25:37.441Z,11.33
2019-02-08T14:28:07.271Z,8.33
2019-02-08T14:30:39.993Z,6.53
2019-02-08T14:33:10.005Z,14.27
2019-02-08T14:35:40.148Z,7.87
2019-02-08T14:38:17.859Z,11.20
2019-02-08T14:40:48.136Z,8.30
2019-02-08T14:43:17.984Z,8.73
2019-02-08T14:45:48.087Z,11.93
2019-02-08T14:48:18.180Z,5.40
2019-02-08T14:50:48.098Z,8.43
2019-02-08T14:53:17.959Z,6.07
2019-02-08T14:55:47.879Z,10.60
2019-02-08T14:58:17.816Z,4.30
2019-02-08T15:00:47.873Z,7.83
2019-02-08T15:03:17.746Z,9.00
2019-02-08T15:05:47.598Z,8.73
2019-02-08T15:08:17.453Z,7.30
2019-02-08T15:10:49.469Z,5.33
2019-02-08T15:13:19.333Z,11.23
2019-02-08T15:15:49.184Z,3.17
2019-02-08T15:18:19.308Z,7.30
2019-02-08T15:20:49.136Z,5.70
2019-02-08T15:23:19.219Z,9.53
2019-02-08T15:25:49.084Z,9.10
2019-02-08T15:28:18.884Z,7.10
2019-02-08T15:30:48.773Z,7.60
2019-02-08T15:33:18.632Z,6.20
2019-02-08T15:35:48.500Z,5.97
2019-02-08T15:38:18.335Z,13.77
2019-02-08T15:40:51.797Z,8.00
2019-02-08T15:43:23.484Z,9.30
2019-02-08T15:46:00.215Z,6.83
2019-02-08T15:48:30.170Z,10.23
2019-02-08T15:51:00.015Z,5.73
2019-02-08T15:53:29.860Z,8.87
2019-02-08T15:56:08.883Z,6.20
2019-02-08T15:58:39.040Z,12.23
2019-02-08T16:01:11.376Z,6.83
2019-02-08T16:03:41.528Z,5.00
2019-02-08T16:06:11.725Z,3.30
2019-02-08T16:08:41.630Z,6.73
2019-02-08T16:11:11.897Z,5.30
2019-02-08T16:13:41.729Z,8.40
2019-02-08T16:16:12.363Z,6.07
2019-02-08T16:18:42.618Z,6.50
2019-02-08T16:21:12.597Z,9.33
2019-02-08T16:23:42.432Z,8.48
2019-02-08T16:26:12.352Z,8.00
2019-02-08T16:28:42.485Z,6.47
2019-02-08T16:31:12.421Z,5.03
2019-02-08T16:33:42.224Z,7.93
2019-02-08T16:36:12.222Z,4.03
2019-02-08T16:38:42.094Z,6.37
2019-02-08T16:41:12.416Z,5.87
2019-02-08T16:43:42.586Z,3.90
2019-02-08T16:46:12.590Z,4.83
2019-02-08T16:48:42.473Z,4.53
2019-02-08T16:51:12.438Z,5.47
2019-02-08T16:53:42.793Z,6.23
2019-02-08T16:56:12.976Z,11.97
2019-02-08T16:58:42.824Z,8.10
2019-02-08T17:01:12.797Z,12.47
2019-02-08T17:03:42.684Z,8.13
2019-02-08T17:06:12.689Z,5.63
2019-02-08T17:08:42.586Z,8.83
2019-02-08T17:11:12.413Z,12.80
2019-02-08T17:13:42.234Z,13.80
2019-02-08T17:16:12.338Z,7.73
2019-02-08T17:18:42.740Z,4.47
2019-02-08T17:21:13.359Z,7.33
2019-02-08T17:23:43.725Z,9.60
2019-02-08T17:26:13.918Z,7.43
2019-02-08T17:28:44.031Z,7.17
2019-02-08T17:31:14.156Z,6.63
2019-02-08T17:33:44.743Z,7.20
2019-02-08T17:36:14.846Z,5.63
2019-02-08T17:38:44.687Z,19.33
2019-02-08T17:41:14.666Z,9.63
2019-02-08T17:43:44.624Z,10.53
2019-02-08T17:46:14.504Z,10.77
2019-02-08T17:48:44.384Z,7.53
2019-02-08T17:51:14.245Z,6.20
2019-02-08T17:53:44.328Z,14.53
2019-02-08T17:56:14.628Z,6.27
2019-02-08T17:58:44.576Z,4.50
2019-02-08T18:01:14.508Z,7.00
2019-02-08T18:03:44.413Z,7.90
2019-02-08T18:06:14.280Z,8.77
2019-02-08T18:08:44.388Z,11.60
2019-02-08T18:11:14.255Z,9.50
2019-02-08T18:13:44.403Z,9.77
2019-02-08T18:16:14.585Z,7.10
2019-02-08T18:18:44.474Z,10.40
2019-02-08T18:21:14.354Z,7.03
2019-02-08T18:23:44.413Z,6.50
2019-02-08T18:26:14.557Z,13.77
2019-02-08T18:28:44.410Z,3.80
2019-02-08T18:31:14.296Z,8.43
2019-02-08T18:33:44.149Z,9.47
2019-02-08T18:36:13.995Z,8.33
2019-02-08T18:38:43.863Z,15.30
2019-02-08T18:41:13.931Z,6.03
2019-02-08T18:43:43.988Z,6.20
2019-02-08T18:46:13.917Z,6.40
2019-02-08T18:48:43.785Z,7.23
2019-02-08T18:51:13.638Z,13.50
2019-02-08T18:53:43.724Z,5.77
2019-02-08T18:56:13.549Z,5.70
2019-02-08T18:58:43.464Z,6.83
2019-02-08T19:01:13.752Z,5.50
2019-02-08T19:03:44.028Z,4.90
2019-02-08T19:06:13.886Z,7.13
2019-02-08T19:08:43.760Z,6.77
2019-02-08T19:11:14.097Z,8.27
2019-02-08T19:13:44.200Z,6.60
2019-02-08T19:16:14.101Z,6.03
2019-02-08T19:18:43.965Z,8.23
2019-02-08T19:21:14.317Z,4.20
2019-02-08T19:23:44.461Z,4.30
2019-02-08T19:26:14.818Z,8.53
2019-02-08T19:28:44.942Z,5.13
2019-02-08T19:31:15.236Z,4.57
2019-02-08T19:33:45.137Z,13.30
2019-02-08T19:36:15.575Z,7.10
2019-02-08T19:38:47.415Z,4.73
2019-02-08T19:41:17.567Z,4.63
2019-02-08T19:43:47.454Z,7.70
2019-02-08T19:46:17.306Z,6.13
2019-02-08T19:48:47.631Z,7.00
2019-02-08T19:51:17.495Z,4.83
2019-02-08T19:53:47.377Z,4.50
2019-02-08T19:56:17.245Z,5.50
2019-02-08T19:58:47.082Z,3.90
2019-02-08T20:01:17.005Z,8.57
2019-02-08T20:03:46.954Z,4.93
2019-02-08T20:06:16.901Z,3.07
2019-02-08T20:08:46.782Z,5.50
2019-02-08T20:11:16.913Z,7.17
2019-02-08T20:13:47.290Z,3.90
2019-02-08T20:16:17.204Z,4.40
2019-02-08T20:18:47.039Z,16.80
2019-02-08T20:21:17.122Z,5.40
2019-02-08T20:23:47.451Z,4.60
2019-02-08T20:26:17.323Z,6.20
2019-02-08T20:28:47.180Z,8.43
2019-02-08T20:31:17.030Z,3.60
2019-02-08T20:33:46.891Z,9.57
2019-02-08T20:36:16.857Z,5.30
2019-02-08T20:38:46.973Z,5.80
2019-02-08T20:41:16.901Z,6.67
2019-02-08T20:43:46.737Z,8.80
2019-02-08T20:46:16.653Z,7.00
2019-02-08T20:48:46.583Z,4.77
2019-02-08T20:51:16.610Z,7.10
2019-02-08T20:53:46.581Z,7.90
2019-02-08T20:56:16.444Z,8.90
2019-02-08T20:58:50.414Z,5.53
2019-02-08T21:01:17.951Z,11.73
2019-02-08T21:03:48.191Z,13.63
2019-02-08T21:06:18.125Z,7.93
2019-02-08T21:08:48.211Z,8.33
2019-02-08T21:11:18.032Z,4.77
2019-02-08T21:13:48.142Z,7.00
2019-02-08T21:16:18.208Z,6.77
2019-02-08T21:18:48.275Z,6.93
2019-02-08T21:21:18.195Z,4.70
2019-02-08T21:23:48.293Z,5.63
2019-02-08T21:26:18.161Z,4.40
2019-02-08T21:28:47.988Z,4.70
2019-02-08T21:31:17.867Z,7.30
2019-02-08T21:33:47.729Z,4.10
2019-02-08T21:36:17.601Z,7.10
2019-02-08T21:38:47.656Z,3.83
2019-02-08T21:41:17.506Z,5.47
2019-02-08T21:43:47.338Z,9.10
2019-02-08T21:46:17.409Z,6.90
2019-02-08T21:48:47.481Z,4.80
2019-02-08T21:51:17.359Z,7.17
2019-02-08T21:53:47.172Z,6.47
2019-02-08T21:56:17.269Z,4.43
2019-02-08T21:58:50.355Z,4.50
2019-02-08T22:01:20.532Z,10.43
2019-02-08T22:03:50.599Z,9.63
2019-02-08T22:06:20.526Z,7.83
2019-02-08T22:08:50.871Z,6.90
2019-02-08T22:11:20.950Z,8.20
2019-02-08T22:13:50.782Z,4.40
2019-02-08T22:16:20.731Z,4.10
2019-02-08T22:18:50.600Z,10.93
2019-02-08T22:21:20.459Z,5.73
2019-02-08T22:23:50.531Z,6.93
2019-02-08T22:26:20.488Z,7.33
2019-02-08T22:28:50.381Z,12.47
2019-02-08T22:31:20.251Z,8.63
2019-02-08T22:33:50.086Z,8.10
2019-02-08T22:36:20.244Z,7.67
2019-02-08T22:38:50.120Z,7.77
2019-02-08T22:41:19.948Z,10.97
2019-02-08T22:43:49.812Z,8.73
2019-02-08T22:46:19.675Z,7.27
2019-02-08T22:48:49.484Z,8.60
2019-02-08T22:51:19.562Z,9.00
2019-02-08T22:53:49.438Z,15.83
2019-02-08T22:56:19.560Z,15.43
2019-02-08T22:58:49.388Z,6.50
2019-02-08T23:01:29.523Z,8.30
2019-02-08T23:04:01.673Z,11.33
2019-02-08T23:06:32.040Z,11.83
2019-02-08T23:09:01.932Z,9.60
2019-02-08T23:11:31.862Z,9.00
2019-02-08T23:14:01.763Z,10.63
2019-02-08T23:16:31.616Z,9.60
2019-02-08T23:19:01.443Z,10.20
2019-02-08T23:21:31.265Z,5.60
2019-02-08T23:24:01.207Z,10.67
2019-02-08T23:26:31.071Z,10.80
2019-02-08T23:29:01.152Z,8.73
2019-02-08T23:31:31.046Z,9.30
2019-02-08T23:34:01.167Z,7.77
2019-02-08T23:36:31.132Z,6.07
2019-02-08T23:39:01.010Z,20.67
2019-02-08T23:41:30.861Z,10.20
2019-02-08T23:44:00.722Z,7.83
2019-02-08T23:46:30.547Z,13.80
2019-02-08T23:49:00.369Z,13.00
2019-02-08T23:51:30.259Z,8.17
2019-02-08T23:54:00.140Z,10.37
2019-02-08T23:56:30.496Z,8.40
2019-02-08T23:59:00.615Z,7.97
